Plattsburgh, NY

1:04 AM EDT on April 25, 2015 (GMT -0400)
Plattsburgh International | | Change Station
CLOSE
Current Station
Airport
Location: Plattsburgh,
Elevation: 236 ft
Nearby Weather Stations

Elev 236 ft 44.65 °N, 73.47 °W | Updated 1 hour ago

Overcast
Overcast
36 °F
Feels Like 30 °F
N
8
Wind Variable Wind from NW

Today
High -- | Low -- °F
--% Chance of Precip.
Yesterday
High -- | Low -- °F
Precip. -- in
5:53 AM 7:51 PM
Waxing Crescent, 42% visible
Pressure 29.87 in
Visibility 10.0 miles
Clouds Mostly Cloudy 4200 ft
Overcast 5000 ft
Windchill 30 °F
Dew Point 22 °F
Humidity 57%
Rainfall 0.00 in
Snow Depth Not available.
UV 0 out of 12
Pollen 7.80 out of 12
Air Quality Not available.
Flu Activity Widespread
METAR KPBG 250353Z AUTO 31007KT 10SM BKN042 OVC050 02/M06 A2986 RMK AO2 SLP113 T00221056

More Conditions Fewer Conditions

Pressure 29.87 in
Visibility 10.0 miles
Clouds Mostly Cloudy 4200 ft
Overcast 5000 ft
Windchill 30 °F
Dew Point 22 °F
Humidity 57%
Rainfall 0.00 in
Snow Depth Not available.
UV 0 out of 12
Pollen 7.80 out of 12
Air Quality Not available.
Flu Activity Widespread
METAR KPBG 250353Z AUTO 31007KT 10SM BKN042 OVC050 02/M06 A2986 RMK AO2 SLP113 T00221056

More Conditions Fewer Conditions

10-Day Weather Forecast

Almanac

Astronomy

Apr. 25, 2015 Rise Set
Actual Time
Civil Twilight
Nautical Twilight
Astronomical Twilight
Moon
Length of Visible Light
Length of Day
Tomorrow will be .
, % of the Moon is Illuminated

Today's Extremes

State Highs State Lows

Community

WunderPhotos

Upload Photos

1,816,607 photos uploaded!

WunderBlogs® & News

Nearby

Air Quality

  Air Quality AQ Index Pollutant
Not available.

Snow Depth

Station Depth Elevation

Earthquake Activity

City Distance Mag. Time & Date
Minimum magnitude displayed is 2.5.

Coastal Water Temperatures

Place Temperature

Stations

Nearby Weather Stations

Station Location Temp. Windchill Dew Point Humidity Wind Precip. Elev Updated Type